Captain Koulis — SV5456 — position and weather

sailwx.info

Track history (hours):
 
Tides and Currents Weather Stations Pressure Air Temp Water Temp Dewpoint Dewpoint Depression Visibility Wind Speed Wind Dir Waves Ship Positions

Captain Koulis

Last reported at 2015-May-28 04:33 UTC. Time now 2015-May-28 06:08 UTC.
Position N 36°25' E 025°25'.

Length 21 m.

Type: Passenger vessel. MMSI: 239173800.

Date/timePositionNaut miles runAvg speedWind from/ knotsBaromVisibWave heightAir tempDewpointWater temp
2015-May-28 04:33N 36°25' E 025°25'1 0.0
2015-May-27 12:21N 36°24' E 025°25'1 1.5
2015-May-27 11:31N 36°25' E 025°26'0 0.0
2015-May-27 10:32N 36°25' E 025°26'0 0.0
2015-May-27 09:32N 36°25' E 025°26'0 0.0
2015-May-27 08:32N 36°25' E 025°26'1 0.4
2015-May-27 05:33N 36°24' E 025°25'1 0.9
2015-May-27 04:33N 36°25' E 025°25'1 0.0
2015-May-25 07:32N 36°25' E 025°24'1 0.9
2015-May-25 06:33N 36°25' E 025°25'0 0.0
2015-May-25 05:33N 36°25' E 025°25'0 0.3
2015-May-25 04:32N 36°25' E 025°25'0 0.0
2015-May-24 14:33N 36°25' E 025°25'1 1.1
2015-May-24 13:33N 36°24' E 025°25'0 0.4
2015-May-24 12:33N 36°24' E 025°26'1 0.1
2015-May-24 04:08N 36°24' E 025°24'1 0.0
2015-May-22 10:28N 36°25' E 025°25'0 0.3
2015-May-22 09:33N 36°25' E 025°26'0 0.0
2015-May-22 08:32N 36°25' E 025°26'0 0.0
2015-May-22 07:33N 36°25' E 025°26'1 0.6
2015-May-22 06:33N 36°25' E 025°25'2 1.7
2015-May-22 05:32N 36°23' E 025°26'0 0.0
2015-May-22 04:32N 36°23' E 025°26'1 0.1
2015-May-21 17:31N 36°24' E 025°24'1 0.7
2015-May-21 15:32N 36°25' E 025°26'0 0.0
2015-May-21 14:32N 36°25' E 025°26'1 0.8
2015-May-21 13:32N 36°24' E 025°25'0 0.3
2015-May-21 12:33N 36°24' E 025°25'1 0.4
2015-May-21 09:33N 36°25' E 025°26'1 0.8
2015-May-21 08:33N 36°25' E 025°25'1 0.8
2015-May-21 07:33N 36°25' E 025°26'4 3.7
2015-May-21 06:33N 36°28' E 025°22'4 3.7
2015-May-21 05:33N 36°25' E 025°26'1 0.6
2015-May-21 04:33N 36°25' E 025°25'1 0.1
2015-May-20 18:08N 36°24' E 025°24'1 1.9
2015-May-20 17:33N 36°25' E 025°25'0 0.1
2015-May-20 16:33N 36°25' E 025°25'0 0.3
2015-May-20 15:32N 36°25' E 025°26'1 0.3
2015-May-20 12:33N 36°24' E 025°25'0 0.1
2015-May-20 11:27N 36°24' E 025°25'0 0.1
2015-May-20 10:32N 36°24' E 025°25'1 1.4
2015-May-20 09:33N 36°23' E 025°26'0 0.2
2015-May-20 06:33N 36°24' E 025°26'1 1.3
2015-May-20 05:33N 36°25' E 025°25'0 0.2
2015-May-20 04:33N 36°25' E 025°25'1 0.1
2015-May-19 13:09N 36°24' E 025°24'3 5.3
2015-May-19 12:33N 36°27' E 025°23'3 3.0
2015-May-19 11:33N 36°25' E 025°26'0 0.0
2015-May-19 10:33N 36°25' E 025°26'0 0.0
2015-May-19 08:03N 36°25' E 025°26'4 7.7
2015-May-19 07:33N 36°28' E 025°22'4 3.7
2015-May-19 06:32N 36°25' E 025°26'0 0.0
2015-May-19 05:32N 36°25' E 025°26'0 0.0
2015-May-19 04:32N 36°25' E 025°26'  
Track history (hours):
 
Tides and Currents Weather Stations Pressure Air Temp Water Temp Dewpoint Dewpoint Depression Visibility Wind Speed Wind Dir Waves Ship Positions

Captain Koulis

Last reported at 2015-May-28 04:33 UTC. Time now 2015-May-28 06:08 UTC.
Position N 36°25' E 025°25'.

Length 21 m.

Type: Passenger vessel. MMSI: 239173800.

Date/timePositionNaut miles runAvg speedWind from/ knotsBaromVisibWave heightAir tempDewpointWater temp
2015-May-28 04:33N 36°25' E 025°25'1 0.0
2015-May-27 12:21N 36°24' E 025°25'1 1.5
2015-May-27 11:31N 36°25' E 025°26'0 0.0
2015-May-27 10:32N 36°25' E 025°26'0 0.0
2015-May-27 09:32N 36°25' E 025°26'0 0.0
2015-May-27 08:32N 36°25' E 025°26'1 0.4
2015-May-27 05:33N 36°24' E 025°25'1 0.9
2015-May-27 04:33N 36°25' E 025°25'1 0.0
2015-May-25 07:32N 36°25' E 025°24'1 0.9
2015-May-25 06:33N 36°25' E 025°25'0 0.0
2015-May-25 05:33N 36°25' E 025°25'0 0.3
2015-May-25 04:32N 36°25' E 025°25'0 0.0
2015-May-24 14:33N 36°25' E 025°25'1 1.1
2015-May-24 13:33N 36°24' E 025°25'0 0.4
2015-May-24 12:33N 36°24' E 025°26'1 0.1
2015-May-24 04:08N 36°24' E 025°24'1 0.0
2015-May-22 10:28N 36°25' E 025°25'0 0.3
2015-May-22 09:33N 36°25' E 025°26'0 0.0
2015-May-22 08:32N 36°25' E 025°26'0 0.0
2015-May-22 07:33N 36°25' E 025°26'1 0.6
2015-May-22 06:33N 36°25' E 025°25'2 1.7
2015-May-22 05:32N 36°23' E 025°26'0 0.0
2015-May-22 04:32N 36°23' E 025°26'1 0.1
2015-May-21 17:31N 36°24' E 025°24'1 0.7
2015-May-21 15:32N 36°25' E 025°26'0 0.0
2015-May-21 14:32N 36°25' E 025°26'1 0.8
2015-May-21 13:32N 36°24' E 025°25'0 0.3
2015-May-21 12:33N 36°24' E 025°25'1 0.4
2015-May-21 09:33N 36°25' E 025°26'1 0.8
2015-May-21 08:33N 36°25' E 025°25'1 0.8
2015-May-21 07:33N 36°25' E 025°26'4 3.7
2015-May-21 06:33N 36°28' E 025°22'4 3.7
2015-May-21 05:33N 36°25' E 025°26'1 0.6
2015-May-21 04:33N 36°25' E 025°25'1 0.1
2015-May-20 18:08N 36°24' E 025°24'1 1.9
2015-May-20 17:33N 36°25' E 025°25'0 0.1
2015-May-20 16:33N 36°25' E 025°25'0 0.3
2015-May-20 15:32N 36°25' E 025°26'1 0.3
2015-May-20 12:33N 36°24' E 025°25'0 0.1
2015-May-20 11:27N 36°24' E 025°25'0 0.1
2015-May-20 10:32N 36°24' E 025°25'1 1.4
2015-May-20 09:33N 36°23' E 025°26'0 0.2
2015-May-20 06:33N 36°24' E 025°26'1 1.3
2015-May-20 05:33N 36°25' E 025°25'0 0.2
2015-May-20 04:33N 36°25' E 025°25'1 0.1
2015-May-19 13:09N 36°24' E 025°24'3 5.3
2015-May-19 12:33N 36°27' E 025°23'3 3.0
2015-May-19 11:33N 36°25' E 025°26'0 0.0
2015-May-19 10:33N 36°25' E 025°26'0 0.0
2015-May-19 08:03N 36°25' E 025°26'4 7.7
2015-May-19 07:33N 36°28' E 025°22'4 3.7
2015-May-19 06:32N 36°25' E 025°26'0 0.0
2015-May-19 05:32N 36°25' E 025°26'0 0.0
2015-May-19 04:32N 36°25' E 025°26'  

Dump ship's entire track history